sensor_id;sensor_type;location;lat;lon;timestamp;temperature;humidity
4509;DHT22;2267;48.816;9.230;2022-07-01T00:02:05;21.50;98.20
4509;DHT22;2267;48.816;9.230;2022-07-01T00:04:32;21.40;98.80
4509;DHT22;2267;48.816;9.230;2022-07-01T00:06:59;21.40;99.10
4509;DHT22;2267;48.816;9.230;2022-07-01T00:09:25;21.40;98.80
4509;DHT22;2267;48.816;9.230;2022-07-01T00:11:53;21.40;98.70
4509;DHT22;2267;48.816;9.230;2022-07-01T00:14:20;21.30;98.70
4509;DHT22;2267;48.816;9.230;2022-07-01T00:16:50;21.30;99.20
4509;DHT22;2267;48.816;9.230;2022-07-01T00:19:17;21.30;99.50
4509;DHT22;2267;48.816;9.230;2022-07-01T00:21:44;21.20;99.30
4509;DHT22;2267;48.816;9.230;2022-07-01T00:24:12;21.20;99.00
4509;DHT22;2267;48.816;9.230;2022-07-01T00:26:39;21.20;98.60
4509;DHT22;2267;48.816;9.230;2022-07-01T00:29:05;21.20;98.60
4509;DHT22;2267;48.816;9.230;2022-07-01T00:31:32;21.20;98.50
4509;DHT22;2267;48.816;9.230;2022-07-01T00:33:59;21.20;98.00
4509;DHT22;2267;48.816;9.230;2022-07-01T00:36:26;21.20;98.60
4509;DHT22;2267;48.816;9.230;2022-07-01T00:38:57;21.10;98.30
4509;DHT22;2267;48.816;9.230;2022-07-01T00:41:24;21.10;98.20
4509;DHT22;2267;48.816;9.230;2022-07-01T00:43:51;21.10;98.80
4509;DHT22;2267;48.816;9.230;2022-07-01T00:46:21;21.00;99.10
4509;DHT22;2267;48.816;9.230;2022-07-01T00:48:49;21.00;99.20
4509;DHT22;2267;48.816;9.230;2022-07-01T00:51:18;21.00;98.10
4509;DHT22;2267;48.816;9.230;2022-07-01T00:53:46;21.00;98.00
4509;DHT22;2267;48.816;9.230;2022-07-01T00:56:13;20.90;97.20
4509;DHT22;2267;48.816;9.230;2022-07-01T00:58:40;20.90;97.60
4509;DHT22;2267;48.816;9.230;2022-07-01T01:01:07;20.90;98.20
4509;DHT22;2267;48.816;9.230;2022-07-01T01:03:34;20.80;98.20
4509;DHT22;2267;48.816;9.230;2022-07-01T01:06:03;20.80;98.20
4509;DHT22;2267;48.816;9.230;2022-07-01T01:08:30;20.80;98.20
4509;DHT22;2267;48.816;9.230;2022-07-01T01:10:57;20.80;98.50
4509;DHT22;2267;48.816;9.230;2022-07-01T01:13:24;20.70;97.70
4509;DHT22;2267;48.816;9.230;2022-07-01T01:15:51;20.70;98.30
4509;DHT22;2267;48.816;9.230;2022-07-01T01:18:18;20.70;97.90
4509;DHT22;2267;48.816;9.230;2022-07-01T01:20:44;20.60;98.00
4509;DHT22;2267;48.816;9.230;2022-07-01T01:23:11;20.60;98.00
4509;DHT22;2267;48.816;9.230;2022-07-01T01:25:38;20.60;97.80
4509;DHT22;2267;48.816;9.230;2022-07-01T01:28:05;20.60;97.40
4509;DHT22;2267;48.816;9.230;2022-07-01T01:30:32;20.60;98.10
4509;DHT22;2267;48.816;9.230;2022-07-01T01:32:59;20.50;98.00
4509;DHT22;2267;48.816;9.230;2022-07-01T01:35:25;20.50;97.60
4509;DHT22;2267;48.816;9.230;2022-07-01T01:37:53;20.50;98.50
4509;DHT22;2267;48.816;9.230;2022-07-01T01:40:20;20.40;98.70
4509;DHT22;2267;48.816;9.230;2022-07-01T01:42:46;20.40;98.10
4509;DHT22;2267;48.816;9.230;2022-07-01T01:45:13;20.40;98.50
4509;DHT22;2267;48.816;9.230;2022-07-01T01:47:41;20.40;98.40
4509;DHT22;2267;48.816;9.230;2022-07-01T01:50:09;20.40;98.30
4509;DHT22;2267;48.816;9.230;2022-07-01T01:52:36;20.40;97.80
4509;DHT22;2267;48.816;9.230;2022-07-01T01:55:05;20.40;97.70
4509;DHT22;2267;48.816;9.230;2022-07-01T01:57:33;20.30;97.60
4509;DHT22;2267;48.816;9.230;2022-07-01T01:59:59;20.30;98.10
4509;DHT22;2267;48.816;9.230;2022-07-01T02:02:27;20.30;98.10
4509;DHT22;2267;48.816;9.230;2022-07-01T02:04:54;20.30;98.50
4509;DHT22;2267;48.816;9.230;2022-07-01T02:07:21;20.30;98.50
4509;DHT22;2267;48.816;9.230;2022-07-01T02:09:47;20.30;98.10
4509;DHT22;2267;48.816;9.230;2022-07-01T02:12:14;20.20;98.20
4509;DHT22;2267;48.816;9.230;2022-07-01T02:14:41;20.20;98.70
4509;DHT22;2267;48.816;9.230;2022-07-01T02:17:08;20.20;98.50
4509;DHT22;2267;48.816;9.230;2022-07-01T02:19:35;20.20;98.40
4509;DHT22;2267;48.816;9.230;2022-07-01T02:22:02;20.10;98.70
4509;DHT22;2267;48.816;9.230;2022-07-01T02:24:29;20.10;98.90
4509;DHT22;2267;48.816;9.230;2022-07-01T02:26:56;20.10;98.70
4509;DHT22;2267;48.816;9.230;2022-07-01T02:29:22;20.10;98.90
4509;DHT22;2267;48.816;9.230;2022-07-01T02:31:49;20.10;99.00
4509;DHT22;2267;48.816;9.230;2022-07-01T02:34:16;20.10;99.00
4509;DHT22;2267;48.816;9.230;2022-07-01T02:36:43;20.00;98.80
4509;DHT22;2267;48.816;9.230;2022-07-01T02:39:10;20.00;99.60
4509;DHT22;2267;48.816;9.230;2022-07-01T02:41:36;20.00;99.60
4509;DHT22;2267;48.816;9.230;2022-07-01T02:44:23;19.90;99.00
4509;DHT22;2267;48.816;9.230;2022-07-01T02:46:50;19.90;98.80
4509;DHT22;2267;48.816;9.230;2022-07-01T02:49:17;19.90;99.10
4509;DHT22;2267;48.816;9.230;2022-07-01T02:51:44;19.80;99.90
4509;DHT22;2267;48.816;9.230;2022-07-01T02:54:10;19.80;99.10
4509;DHT22;2267;48.816;9.230;2022-07-01T02:56:37;19.80;99.30
4509;DHT22;2267;48.816;9.230;2022-07-01T02:59:04;19.70;99.60
4509;DHT22;2267;48.816;9.230;2022-07-01T03:01:31;19.70;99.00
4509;DHT22;2267;48.816;9.230;2022-07-01T03:03:58;19.70;99.60
4509;DHT22;2267;48.816;9.230;2022-07-01T03:06:24;19.70;99.60
4509;DHT22;2267;48.816;9.230;2022-07-01T03:08:51;19.60;99.50
4509;DHT22;2267;48.816;9.230;2022-07-01T03:11:18;19.70;99.10
4509;DHT22;2267;48.816;9.230;2022-07-01T03:13:45;19.70;98.90
4509;DHT22;2267;48.816;9.230;2022-07-01T03:16:12;19.70;98.90
4509;DHT22;2267;48.816;9.230;2022-07-01T03:18:39;19.70;98.60
4509;DHT22;2267;48.816;9.230;2022-07-01T03:21:06;19.70;98.90
4509;DHT22;2267;48.816;9.230;2022-07-01T03:23:33;19.70;98.80
4509;DHT22;2267;48.816;9.230;2022-07-01T03:25:59;19.70;98.50
4509;DHT22;2267;48.816;9.230;2022-07-01T03:28:26;19.70;98.40
4509;DHT22;2267;48.816;9.230;2022-07-01T03:30:53;19.70;98.30
4509;DHT22;2267;48.816;9.230;2022-07-01T03:33:20;19.70;98.40
4509;DHT22;2267;48.816;9.230;2022-07-01T03:35:47;19.70;98.00
4509;DHT22;2267;48.816;9.230;2022-07-01T03:38:14;19.70;98.40
4509;DHT22;2267;48.816;9.230;2022-07-01T03:40:41;19.70;97.90
4509;DHT22;2267;48.816;9.230;2022-07-01T03:43:07;19.70;98.30
4509;DHT22;2267;48.816;9.230;2022-07-01T03:45:35;19.70;98.20
4509;DHT22;2267;48.816;9.230;2022-07-01T03:48:02;19.70;98.70
4509;DHT22;2267;48.816;9.230;2022-07-01T03:50:29;19.60;98.60
4509;DHT22;2267;48.816;9.230;2022-07-01T03:52:56;19.60;98.70
4509;DHT22;2267;48.816;9.230;2022-07-01T03:55:42;19.70;99.40
4509;DHT22;2267;48.816;9.230;2022-07-01T03:58:09;19.60;99.30
4509;DHT22;2267;48.816;9.230;2022-07-01T04:00:37;19.70;99.20
4509;DHT22;2267;48.816;9.230;2022-07-01T04:03:05;19.70;99.20
4509;DHT22;2267;48.816;9.230;2022-07-01T04:05:33;19.70;99.20
4509;DHT22;2267;48.816;9.230;2022-07-01T04:08:05;19.60;99.20
4509;DHT22;2267;48.816;9.230;2022-07-01T04:10:33;19.70;99.40
4509;DHT22;2267;48.816;9.230;2022-07-01T04:13:01;19.60;98.70
4509;DHT22;2267;48.816;9.230;2022-07-01T04:15:48;19.60;99.10
4509;DHT22;2267;48.816;9.230;2022-07-01T04:18:15;19.70;99.00
4509;DHT22;2267;48.816;9.230;2022-07-01T04:20:42;19.60;98.90
4509;DHT22;2267;48.816;9.230;2022-07-01T04:23:09;19.50;99.30
4509;DHT22;2267;48.816;9.230;2022-07-01T04:25:36;19.50;99.40
4509;DHT22;2267;48.816;9.230;2022-07-01T04:28:03;19.50;99.90
4509;DHT22;2267;48.816;9.230;2022-07-01T04:30:30;19.40;99.90
4509;DHT22;2267;48.816;9.230;2022-07-01T04:32:57;19.40;99.90
4509;DHT22;2267;48.816;9.230;2022-07-01T04:35:24;19.40;99.90
4509;DHT22;2267;48.816;9.230;2022-07-01T04:37:51;19.40;99.90
4509;DHT22;2267;48.816;9.230;2022-07-01T04:40:17;19.40;99.90
4509;DHT22;2267;48.816;9.230;2022-07-01T04:42:44;19.40;99.90
4509;DHT22;2267;48.816;9.230;2022-07-01T04:45:11;19.40;99.90
4509;DHT22;2267;48.816;9.230;2022-07-01T04:47:38;19.40;99.90
4509;DHT22;2267;48.816;9.230;2022-07-01T04:50:05;19.40;99.50
4509;DHT22;2267;48.816;9.230;2022-07-01T04:52:32;19.30;99.80
4509;DHT22;2267;48.816;9.230;2022-07-01T04:54:59;19.40;99.90
4509;DHT22;2267;48.816;9.230;2022-07-01T04:57:26;19.30;99.90
4509;DHT22;2267;48.816;9.230;2022-07-01T04:59:53;19.30;99.90
4509;DHT22;2267;48.816;9.230;2022-07-01T05:02:19;19.30;99.90
4509;DHT22;2267;48.816;9.230;2022-07-01T05:04:46;19.30;99.80
4509;DHT22;2267;48.816;9.230;2022-07-01T05:07:13;19.20;99.70
4509;DHT22;2267;48.816;9.230;2022-07-01T05:09:56;19.20;99.90
4509;DHT22;2267;48.816;9.230;2022-07-01T05:12:23;19.20;99.80
4509;DHT22;2267;48.816;9.230;2022-07-01T05:14:50;19.20;99.90
4509;DHT22;2267;48.816;9.230;2022-07-01T05:17:17;19.20;99.90
4509;DHT22;2267;48.816;9.230;2022-07-01T05:19:44;19.20;99.90
4509;DHT22;2267;48.816;9.230;2022-07-01T05:22:29;19.10;99.90
4509;DHT22;2267;48.816;9.230;2022-07-01T05:24:56;19.10;99.90
4509;DHT22;2267;48.816;9.230;2022-07-01T05:27:22;19.10;99.90
4509;DHT22;2267;48.816;9.230;2022-07-01T05:29:51;19.10;99.90
4509;DHT22;2267;48.816;9.230;2022-07-01T05:32:18;19.10;99.90
4509;DHT22;2267;48.816;9.230;2022-07-01T05:34:45;19.00;99.90
4509;DHT22;2267;48.816;9.230;2022-07-01T05:37:12;19.00;99.90
4509;DHT22;2267;48.816;9.230;2022-07-01T05:39:39;19.00;99.90
4509;DHT22;2267;48.816;9.230;2022-07-01T05:42:14;19.00;99.90
4509;DHT22;2267;48.816;9.230;2022-07-01T05:44:41;19.00;99.90
4509;DHT22;2267;48.816;9.230;2022-07-01T05:47:08;19.00;99.90
4509;DHT22;2267;48.816;9.230;2022-07-01T05:49:36;19.00;99.90
4509;DHT22;2267;48.816;9.230;2022-07-01T05:52:03;19.00;99.90
4509;DHT22;2267;48.816;9.230;2022-07-01T05:54:30;19.00;99.90
4509;DHT22;2267;48.816;9.230;2022-07-01T05:56:56;19.00;99.90
4509;DHT22;2267;48.816;9.230;2022-07-01T05:59:23;19.00;99.90
4509;DHT22;2267;48.816;9.230;2022-07-01T06:01:50;19.00;99.90
4509;DHT22;2267;48.816;9.230;2022-07-01T06:04:17;19.00;99.90
4509;DHT22;2267;48.816;9.230;2022-07-01T06:06:44;19.00;99.90
4509;DHT22;2267;48.816;9.230;2022-07-01T06:09:11;19.00;99.90
4509;DHT22;2267;48.816;9.230;2022-07-01T06:11:38;19.00;99.90
4509;DHT22;2267;48.816;9.230;2022-07-01T06:14:04;19.00;99.90
4509;DHT22;2267;48.816;9.230;2022-07-01T06:16:31;19.00;99.90
4509;DHT22;2267;48.816;9.230;2022-07-01T06:18:58;19.00;99.90
4509;DHT22;2267;48.816;9.230;2022-07-01T06:21:25;19.00;99.90
4509;DHT22;2267;48.816;9.230;2022-07-01T06:23:52;19.00;99.90
4509;DHT22;2267;48.816;9.230;2022-07-01T06:26:19;19.00;99.90
4509;DHT22;2267;48.816;9.230;2022-07-01T06:28:46;19.00;99.90
4509;DHT22;2267;48.816;9.230;2022-07-01T06:31:13;19.00;99.90
4509;DHT22;2267;48.816;9.230;2022-07-01T06:33:40;19.00;99.90
4509;DHT22;2267;48.816;9.230;2022-07-01T06:36:07;19.00;99.90
4509;DHT22;2267;48.816;9.230;2022-07-01T06:38:34;19.00;99.90
4509;DHT22;2267;48.816;9.230;2022-07-01T06:41:01;19.00;99.90
4509;DHT22;2267;48.816;9.230;2022-07-01T06:43:47;19.00;99.90
4509;DHT22;2267;48.816;9.230;2022-07-01T06:46:14;19.00;99.90
4509;DHT22;2267;48.816;9.230;2022-07-01T06:48:41;19.00;99.90
4509;DHT22;2267;48.816;9.230;2022-07-01T06:51:07;19.10;99.90
4509;DHT22;2267;48.816;9.230;2022-07-01T06:53:34;19.10;99.90
4509;DHT22;2267;48.816;9.230;2022-07-01T06:56:01;19.00;99.90
4509;DHT22;2267;48.816;9.230;2022-07-01T06:58:28;19.10;99.90
4509;DHT22;2267;48.816;9.230;2022-07-01T07:00:55;19.10;99.90
4509;DHT22;2267;48.816;9.230;2022-07-01T07:03:22;19.10;99.90
4509;DHT22;2267;48.816;9.230;2022-07-01T07:05:49;19.10;99.90
4509;DHT22;2267;48.816;9.230;2022-07-01T07:08:16;19.00;99.90
4509;DHT22;2267;48.816;9.230;2022-07-01T07:10:43;19.00;99.90
4509;DHT22;2267;48.816;9.230;2022-07-01T07:13:09;19.00;99.90
4509;DHT22;2267;48.816;9.230;2022-07-01T07:15:36;19.00;99.90
4509;DHT22;2267;48.816;9.230;2022-07-01T07:18:08;19.00;99.90
4509;DHT22;2267;48.816;9.230;2022-07-01T07:20:35;19.00;99.90
4509;DHT22;2267;48.816;9.230;2022-07-01T07:23:02;19.00;99.90
4509;DHT22;2267;48.816;9.230;2022-07-01T07:25:29;19.00;99.90
4509;DHT22;2267;48.816;9.230;2022-07-01T07:27:56;19.00;99.90
4509;DHT22;2267;48.816;9.230;2022-07-01T07:30:23;19.10;99.90
4509;DHT22;2267;48.816;9.230;2022-07-01T07:32:50;19.10;99.90
4509;DHT22;2267;48.816;9.230;2022-07-01T07:35:17;19.10;99.90
4509;DHT22;2267;48.816;9.230;2022-07-01T07:37:44;19.10;99.90
4509;DHT22;2267;48.816;9.230;2022-07-01T07:40:12;19.10;99.90
4509;DHT22;2267;48.816;9.230;2022-07-01T07:42:41;19.10;99.90
4509;DHT22;2267;48.816;9.230;2022-07-01T07:45:08;19.10;99.90
4509;DHT22;2267;48.816;9.230;2022-07-01T07:47:35;19.10;99.90
4509;DHT22;2267;48.816;9.230;2022-07-01T07:50:03;19.10;99.90
4509;DHT22;2267;48.816;9.230;2022-07-01T07:52:30;19.00;99.90
4509;DHT22;2267;48.816;9.230;2022-07-01T07:54:57;19.00;99.90
4509;DHT22;2267;48.816;9.230;2022-07-01T07:57:24;19.00;99.90
4509;DHT22;2267;48.816;9.230;2022-07-01T07:59:51;19.00;99.90
4509;DHT22;2267;48.816;9.230;2022-07-01T08:02:18;19.10;99.90
4509;DHT22;2267;48.816;9.230;2022-07-01T08:04:50;19.10;99.90
4509;DHT22;2267;48.816;9.230;2022-07-01T08:07:17;19.00;99.90
4509;DHT22;2267;48.816;9.230;2022-07-01T08:09:44;19.00;99.90
4509;DHT22;2267;48.816;9.230;2022-07-01T08:12:15;19.00;99.90
4509;DHT22;2267;48.816;9.230;2022-07-01T08:14:43;19.00;99.90
4509;DHT22;2267;48.816;9.230;2022-07-01T08:17:10;19.00;99.90
4509;DHT22;2267;48.816;9.230;2022-07-01T08:19:37;19.00;99.90
4509;DHT22;2267;48.816;9.230;2022-07-01T08:22:04;19.00;99.90
4509;DHT22;2267;48.816;9.230;2022-07-01T08:24:31;19.00;99.90
4509;DHT22;2267;48.816;9.230;2022-07-01T08:26:58;19.00;99.90
4509;DHT22;2267;48.816;9.230;2022-07-01T08:29:25;19.00;99.90
4509;DHT22;2267;48.816;9.230;2022-07-01T08:31:52;19.00;99.90
4509;DHT22;2267;48.816;9.230;2022-07-01T08:34:20;19.00;99.90
4509;DHT22;2267;48.816;9.230;2022-07-01T08:36:47;19.00;99.90
4509;DHT22;2267;48.816;9.230;2022-07-01T08:39:14;19.00;99.90
4509;DHT22;2267;48.816;9.230;2022-07-01T08:41:41;19.00;99.90
4509;DHT22;2267;48.816;9.230;2022-07-01T08:44:08;19.00;99.90
4509;DHT22;2267;48.816;9.230;2022-07-01T08:46:35;19.00;99.90
4509;DHT22;2267;48.816;9.230;2022-07-01T08:49:02;19.00;99.90
4509;DHT22;2267;48.816;9.230;2022-07-01T08:51:29;19.00;99.90
4509;DHT22;2267;48.816;9.230;2022-07-01T08:53:56;19.00;99.90
4509;DHT22;2267;48.816;9.230;2022-07-01T08:56:23;19.00;99.90
4509;DHT22;2267;48.816;9.230;2022-07-01T08:59:09;19.00;99.90
4509;DHT22;2267;48.816;9.230;2022-07-01T09:01:38;19.00;99.90
4509;DHT22;2267;48.816;9.230;2022-07-01T09:06:41;19.10;99.90
4509;DHT22;2267;48.816;9.230;2022-07-01T09:09:18;19.00;99.90
4509;DHT22;2267;48.816;9.230;2022-07-01T09:11:51;19.00;99.90
4509;DHT22;2267;48.816;9.230;2022-07-01T09:14:26;19.00;99.90
4509;DHT22;2267;48.816;9.230;2022-07-01T09:16:54;19.00;99.90
4509;DHT22;2267;48.816;9.230;2022-07-01T09:19:23;19.00;99.90
4509;DHT22;2267;48.816;9.230;2022-07-01T09:24:35;19.00;99.90
4509;DHT22;2267;48.816;9.230;2022-07-01T09:29:37;19.00;99.90
4509;DHT22;2267;48.816;9.230;2022-07-01T09:32:06;18.90;99.90
4509;DHT22;2267;48.816;9.230;2022-07-01T09:37:02;18.90;99.90
4509;DHT22;2267;48.816;9.230;2022-07-01T09:39:29;18.90;99.90
4509;DHT22;2267;48.816;9.230;2022-07-01T09:42:02;18.90;99.90
4509;DHT22;2267;48.816;9.230;2022-07-01T09:44:29;18.90;99.90
4509;DHT22;2267;48.816;9.230;2022-07-01T09:46:57;18.90;99.90
4509;DHT22;2267;48.816;9.230;2022-07-01T09:49:24;18.90;99.90
4509;DHT22;2267;48.816;9.230;2022-07-01T09:51:51;18.80;99.90
4509;DHT22;2267;48.816;9.230;2022-07-01T09:54:19;18.80;99.90
4509;DHT22;2267;48.816;9.230;2022-07-01T09:56:47;18.90;99.90
4509;DHT22;2267;48.816;9.230;2022-07-01T09:59:16;18.80;99.90
4509;DHT22;2267;48.816;9.230;2022-07-01T10:01:44;18.80;99.90
4509;DHT22;2267;48.816;9.230;2022-07-01T10:04:13;18.80;99.90
4509;DHT22;2267;48.816;9.230;2022-07-01T10:06:53;18.80;99.90
4509;DHT22;2267;48.816;9.230;2022-07-01T10:12:30;18.80;99.90
4509;DHT22;2267;48.816;9.230;2022-07-01T10:14:58;18.90;99.90
4509;DHT22;2267;48.816;9.230;2022-07-01T10:17:42;18.90;99.90
4509;DHT22;2267;48.816;9.230;2022-07-01T10:20:23;19.00;99.90
4509;DHT22;2267;48.816;9.230;2022-07-01T10:23:00;19.00;99.90
4509;DHT22;2267;48.816;9.230;2022-07-01T10:25:42;19.00;99.90
4509;DHT22;2267;48.816;9.230;2022-07-01T10:31:07;19.10;99.90
4509;DHT22;2267;48.816;9.230;2022-07-01T10:34:09;19.20;99.90
4509;DHT22;2267;48.816;9.230;2022-07-01T10:36:37;19.30;99.90
4509;DHT22;2267;48.816;9.230;2022-07-01T10:39:10;19.40;99.90
4509;DHT22;2267;48.816;9.230;2022-07-01T10:44:14;19.50;99.90
4509;DHT22;2267;48.816;9.230;2022-07-01T10:49:20;19.70;99.90
4509;DHT22;2267;48.816;9.230;2022-07-01T10:51:49;19.80;99.90
4509;DHT22;2267;48.816;9.230;2022-07-01T10:59:49;20.00;99.90
4509;DHT22;2267;48.816;9.230;2022-07-01T11:02:24;20.10;99.90
4509;DHT22;2267;48.816;9.230;2022-07-01T11:04:57;20.10;99.90
4509;DHT22;2267;48.816;9.230;2022-07-01T11:07:27;20.20;99.90
4509;DHT22;2267;48.816;9.230;2022-07-01T11:09:55;20.30;99.90
4509;DHT22;2267;48.816;9.230;2022-07-01T11:12:23;20.40;99.90
4509;DHT22;2267;48.816;9.230;2022-07-01T11:14:51;20.50;99.90
4509;DHT22;2267;48.816;9.230;2022-07-01T11:17:20;20.50;99.90
4509;DHT22;2267;48.816;9.230;2022-07-01T11:19:49;20.60;99.60
4509;DHT22;2267;48.816;9.230;2022-07-01T11:22:21;20.60;99.90
4509;DHT22;2267;48.816;9.230;2022-07-01T11:24:53;20.60;99.50
4509;DHT22;2267;48.816;9.230;2022-07-01T11:27:21;20.60;98.80
4509;DHT22;2267;48.816;9.230;2022-07-01T11:29:55;20.60;98.70
4509;DHT22;2267;48.816;9.230;2022-07-01T11:32:34;20.60;98.30
4509;DHT22;2267;48.816;9.230;2022-07-01T11:35:03;20.50;98.80
4509;DHT22;2267;48.816;9.230;2022-07-01T11:37:51;20.50;98.10
4509;DHT22;2267;48.816;9.230;2022-07-01T11:40:37;20.40;98.00
4509;DHT22;2267;48.816;9.230;2022-07-01T11:43:18;20.40;98.40
4509;DHT22;2267;48.816;9.230;2022-07-01T11:45:45;20.40;98.60
4509;DHT22;2267;48.816;9.230;2022-07-01T11:48:12;20.40;98.50
4509;DHT22;2267;48.816;9.230;2022-07-01T11:50:53;20.40;98.90
4509;DHT22;2267;48.816;9.230;2022-07-01T11:53:20;20.40;98.80
4509;DHT22;2267;48.816;9.230;2022-07-01T11:55:47;20.60;98.00
4509;DHT22;2267;48.816;9.230;2022-07-01T11:58:14;20.80;98.90
4509;DHT22;2267;48.816;9.230;2022-07-01T12:00:41;21.00;97.90
4509;DHT22;2267;48.816;9.230;2022-07-01T12:03:08;21.20;97.70
4509;DHT22;2267;48.816;9.230;2022-07-01T12:05:36;21.40;98.00
4509;DHT22;2267;48.816;9.230;2022-07-01T12:08:05;21.50;97.40
4509;DHT22;2267;48.816;9.230;2022-07-01T12:10:32;21.60;96.50
4509;DHT22;2267;48.816;9.230;2022-07-01T12:12:59;21.70;95.90
4509;DHT22;2267;48.816;9.230;2022-07-01T12:15:26;21.70;95.90
4509;DHT22;2267;48.816;9.230;2022-07-01T12:18:05;21.70;94.10
4509;DHT22;2267;48.816;9.230;2022-07-01T12:20:32;21.60;94.40
4509;DHT22;2267;48.816;9.230;2022-07-01T12:23:12;21.70;94.90
4509;DHT22;2267;48.816;9.230;2022-07-01T12:25:40;21.70;94.50
4509;DHT22;2267;48.816;9.230;2022-07-01T12:28:32;21.60;95.10
4509;DHT22;2267;48.816;9.230;2022-07-01T12:33:27;21.50;96.10
4509;DHT22;2267;48.816;9.230;2022-07-01T12:35:56;21.50;96.40
4509;DHT22;2267;48.816;9.230;2022-07-01T12:38:26;21.40;95.90
4509;DHT22;2267;48.816;9.230;2022-07-01T12:40:53;21.30;96.50
4509;DHT22;2267;48.816;9.230;2022-07-01T12:43:29;21.30;96.00
4509;DHT22;2267;48.816;9.230;2022-07-01T12:45:57;21.20;96.60
4509;DHT22;2267;48.816;9.230;2022-07-01T12:48:25;21.20;96.80
4509;DHT22;2267;48.816;9.230;2022-07-01T12:50:54;21.20;96.60
4509;DHT22;2267;48.816;9.230;2022-07-01T12:53:28;21.20;96.70
4509;DHT22;2267;48.816;9.230;2022-07-01T12:56:00;21.20;95.80
4509;DHT22;2267;48.816;9.230;2022-07-01T12:58:30;21.20;95.60
4509;DHT22;2267;48.816;9.230;2022-07-01T13:00:59;21.20;96.50
4509;DHT22;2267;48.816;9.230;2022-07-01T13:03:31;21.20;96.00
4509;DHT22;2267;48.816;9.230;2022-07-01T13:06:07;21.30;95.80
4509;DHT22;2267;48.816;9.230;2022-07-01T13:08:35;21.30;95.40
4509;DHT22;2267;48.816;9.230;2022-07-01T13:11:02;21.20;95.30
4509;DHT22;2267;48.816;9.230;2022-07-01T13:13:29;21.20;94.60
4509;DHT22;2267;48.816;9.230;2022-07-01T13:15:56;21.20;94.70
4509;DHT22;2267;48.816;9.230;2022-07-01T13:18:23;21.30;95.60
4509;DHT22;2267;48.816;9.230;2022-07-01T13:20:55;21.40;94.90
4509;DHT22;2267;48.816;9.230;2022-07-01T13:23:22;21.50;95.00
4509;DHT22;2267;48.816;9.230;2022-07-01T13:25:49;21.60;94.90
4509;DHT22;2267;48.816;9.230;2022-07-01T13:28:15;21.70;95.70
4509;DHT22;2267;48.816;9.230;2022-07-01T13:30:42;21.80;95.40
4509;DHT22;2267;48.816;9.230;2022-07-01T13:33:09;21.80;94.80
4509;DHT22;2267;48.816;9.230;2022-07-01T13:35:36;21.80;94.80
4509;DHT22;2267;48.816;9.230;2022-07-01T13:38:06;21.80;95.00
4509;DHT22;2267;48.816;9.230;2022-07-01T13:40:33;21.70;95.20
4509;DHT22;2267;48.816;9.230;2022-07-01T13:43:00;21.70;94.90
4509;DHT22;2267;48.816;9.230;2022-07-01T13:45:26;21.70;95.30
4509;DHT22;2267;48.816;9.230;2022-07-01T13:47:55;21.60;95.40
4509;DHT22;2267;48.816;9.230;2022-07-01T13:50:21;21.60;95.40
4509;DHT22;2267;48.816;9.230;2022-07-01T13:52:57;21.60;95.30
4509;DHT22;2267;48.816;9.230;2022-07-01T13:55:24;21.70;95.50
4509;DHT22;2267;48.816;9.230;2022-07-01T13:57:54;22.00;95.60
4509;DHT22;2267;48.816;9.230;2022-07-01T14:00:21;22.00;95.40
4509;DHT22;2267;48.816;9.230;2022-07-01T14:02:48;22.00;94.80
4509;DHT22;2267;48.816;9.230;2022-07-01T14:05:15;22.00;95.20
4509;DHT22;2267;48.816;9.230;2022-07-01T14:07:42;22.00;94.60
4509;DHT22;2267;48.816;9.230;2022-07-01T14:10:09;22.00;94.00
4509;DHT22;2267;48.816;9.230;2022-07-01T14:12:36;22.10;94.00
4509;DHT22;2267;48.816;9.230;2022-07-01T14:15:03;22.20;93.70
4509;DHT22;2267;48.816;9.230;2022-07-01T14:17:30;22.30;93.80
4509;DHT22;2267;48.816;9.230;2022-07-01T14:19:57;22.60;94.00
4509;DHT22;2267;48.816;9.230;2022-07-01T14:22:25;22.80;93.30
4509;DHT22;2267;48.816;9.230;2022-07-01T14:24:53;23.00;93.10
4509;DHT22;2267;48.816;9.230;2022-07-01T14:27:20;23.10;92.90
4509;DHT22;2267;48.816;9.230;2022-07-01T14:29:47;23.20;92.80
4509;DHT22;2267;48.816;9.230;2022-07-01T14:32:20;23.40;92.50
4509;DHT22;2267;48.816;9.230;2022-07-01T14:34:53;23.50;92.00
4509;DHT22;2267;48.816;9.230;2022-07-01T14:37:20;23.60;92.00
4509;DHT22;2267;48.816;9.230;2022-07-01T14:39:47;23.70;91.40
4509;DHT22;2267;48.816;9.230;2022-07-01T14:42:17;23.80;91.50
4509;DHT22;2267;48.816;9.230;2022-07-01T14:44:44;23.90;91.00
4509;DHT22;2267;48.816;9.230;2022-07-01T14:47:11;24.00;91.30
4509;DHT22;2267;48.816;9.230;2022-07-01T14:49:40;24.10;90.90
4509;DHT22;2267;48.816;9.230;2022-07-01T14:52:07;24.10;90.30
4509;DHT22;2267;48.816;9.230;2022-07-01T14:54:34;24.20;90.40
4509;DHT22;2267;48.816;9.230;2022-07-01T14:57:07;24.30;90.20
4509;DHT22;2267;48.816;9.230;2022-07-01T14:59:34;24.20;88.60
4509;DHT22;2267;48.816;9.230;2022-07-01T15:02:04;24.00;88.00
4509;DHT22;2267;48.816;9.230;2022-07-01T15:04:32;24.00;89.30
4509;DHT22;2267;48.816;9.230;2022-07-01T15:07:02;23.90;90.50
4509;DHT22;2267;48.816;9.230;2022-07-01T15:09:29;24.00;90.30
4509;DHT22;2267;48.816;9.230;2022-07-01T15:11:59;24.00;90.20
4509;DHT22;2267;48.816;9.230;2022-07-01T15:14:29;23.90;89.70
4509;DHT22;2267;48.816;9.230;2022-07-01T15:16:57;23.80;89.70
4509;DHT22;2267;48.816;9.230;2022-07-01T15:19:28;23.80;89.00
4509;DHT22;2267;48.816;9.230;2022-07-01T15:21:58;23.90;90.10
4509;DHT22;2267;48.816;9.230;2022-07-01T15:24:25;24.00;90.20
4509;DHT22;2267;48.816;9.230;2022-07-01T15:27:00;24.10;90.00
4509;DHT22;2267;48.816;9.230;2022-07-01T15:29:27;24.20;90.50
4509;DHT22;2267;48.816;9.230;2022-07-01T15:31:55;24.20;89.20
4509;DHT22;2267;48.816;9.230;2022-07-01T15:34:22;24.20;88.20
4509;DHT22;2267;48.816;9.230;2022-07-01T15:36:50;24.30;88.40
4509;DHT22;2267;48.816;9.230;2022-07-01T15:39:17;24.40;88.10
4509;DHT22;2267;48.816;9.230;2022-07-01T15:41:44;24.40;88.40
4509;DHT22;2267;48.816;9.230;2022-07-01T15:44:12;24.20;86.30
4509;DHT22;2267;48.816;9.230;2022-07-01T15:46:39;24.00;87.00
4509;DHT22;2267;48.816;9.230;2022-07-01T15:49:06;23.90;88.70
4509;DHT22;2267;48.816;9.230;2022-07-01T15:51:34;23.90;87.90
4509;DHT22;2267;48.816;9.230;2022-07-01T15:54:02;23.80;87.10
4509;DHT22;2267;48.816;9.230;2022-07-01T15:56:32;23.80;87.50
4509;DHT22;2267;48.816;9.230;2022-07-01T15:59:02;23.80;87.00
4509;DHT22;2267;48.816;9.230;2022-07-01T16:01:31;23.70;87.70
4509;DHT22;2267;48.816;9.230;2022-07-01T16:03:58;23.70;87.60
4509;DHT22;2267;48.816;9.230;2022-07-01T16:06:25;23.60;88.00
4509;DHT22;2267;48.816;9.230;2022-07-01T16:09:01;23.60;87.80
4509;DHT22;2267;48.816;9.230;2022-07-01T16:11:28;23.70;87.50
4509;DHT22;2267;48.816;9.230;2022-07-01T16:13:59;23.60;87.90
4509;DHT22;2267;48.816;9.230;2022-07-01T16:16:31;23.60;87.40
4509;DHT22;2267;48.816;9.230;2022-07-01T16:19:01;23.60;88.60
4509;DHT22;2267;48.816;9.230;2022-07-01T16:21:30;23.80;87.50
4509;DHT22;2267;48.816;9.230;2022-07-01T16:23:57;23.90;84.30
4509;DHT22;2267;48.816;9.230;2022-07-01T16:26:27;23.90;84.70
4509;DHT22;2267;48.816;9.230;2022-07-01T16:28:54;23.90;85.80
4509;DHT22;2267;48.816;9.230;2022-07-01T16:31:21;24.00;86.00
4509;DHT22;2267;48.816;9.230;2022-07-01T16:33:49;24.00;85.90
4509;DHT22;2267;48.816;9.230;2022-07-01T16:36:28;23.90;86.10
4509;DHT22;2267;48.816;9.230;2022-07-01T16:42:08;23.80;86.10
4509;DHT22;2267;48.816;9.230;2022-07-01T16:47:07;23.70;85.70